Time;durP1;ratioP1;P1;durP2;ratioP2;P2;SDS_P1;SDS_P2;PMS_P1;PMS_P2;Temp;Humidity;BMP_temperature;BMP_pressure;BME280_temperature;BME280_humidity;BME280_pressure;Samples;Min_cycle;Max_cycle;Signal;HPM_P1;HPM_P2
2021/09/12 00:01:24;;;;;;;;;;;;;;;;;;5005922;28;20020;-81
2021/09/12 00:03:51;;;;;;;;;;;;;;;;;;5002099;28;19926;-80
2021/09/12 00:06:18;;;;;;;;;;;;;;;;;;4994574;28;19925;-79
2021/09/12 00:08:45;;;;;;;;;;;;;;;;;;4993811;28;19930;-82
2021/09/12 00:11:12;;;;;;;;;;;;;;;;;;5000650;28;19926;-81
2021/09/12 00:13:41;;;;;;;;;;;;;;;;;;4991578;28;19933;-81
2021/09/12 00:16:07;;;;;;;;;;;;;;;;;;5000600;28;19932;-82
2021/09/12 00:18:34;;;;;;;;;;;;;;;;;;5002513;28;19929;-81
2021/09/12 00:21:01;;;;;;;;;;;;;;;;;;4999763;28;20086;-81
2021/09/12 00:23:28;;;;;;;;;;;;;;;;;;4997475;28;20405;-81
2021/09/12 00:25:55;;;;;;;;;;;;;;;;;;4996016;28;20392;-81
2021/09/12 00:28:22;;;;;;;;;;;;;;;;;;4998216;28;19933;-81
2021/09/12 00:30:49;;;;;;;;;;;;;;;;;;4995077;28;19933;-83
2021/09/12 00:33:16;;;;;;;;;;;;;;;;;;5008727;28;20867;-82
2021/09/12 00:35:43;;;;;;;;;;;;;;;;;;5001644;28;20311;-81
2021/09/12 00:38:12;;;;;;;;;;;;;;;;;;5000397;28;20388;-81
2021/09/12 00:40:39;;;;;;;;;;;;;;;;;;4996053;28;19932;-80
2021/09/12 00:43:06;;;;;;;;;;;;;;;;;;4998550;28;19929;-81
2021/09/12 00:45:33;;;;;;;;;;;;;;;;;;4996344;28;19932;-81
2021/09/12 00:48:00;;;;;;;;;;;;;;;;;;4997835;28;19929;-80
2021/09/12 00:50:27;;;;;;;;;;;;;;;;;;4991834;28;20301;-81
2021/09/12 00:52:53;;;;;;;;;;;;;;;;;;4996625;28;20413;-81
2021/09/12 00:55:20;;;;;;;;;;;;;;;;;;4994522;28;20016;-82
2021/09/12 00:57:47;;;;;;;;;;;;;;;;;;4995768;28;20017;-82
2021/09/12 01:00:14;;;;;;;;;;;;;;;;;;4993026;28;19930;-83
2021/09/12 01:02:41;;;;;;;;;;;;;;;;;;4998468;28;19939;-82
2021/09/12 01:05:08;;;;;;;;;;;;;;;;;;4999710;28;19932;-83
2021/09/12 01:07:35;;;;;;;;;;;;;;;;;;4998782;28;19925;-82
2021/09/12 01:10:02;;;;;;;;;;;;;;;;;;4997181;28;19925;-82
2021/09/12 01:12:29;;;;;;;;;;;;;;;;;;4997408;28;19945;-81
2021/09/12 01:14:56;;;;;;;;;;;;;;;;;;4997603;28;19925;-81
2021/09/12 01:17:23;;;;;;;;;;;;;;;;;;4998411;28;19926;-81
2021/09/12 01:19:50;;;;;;;;;;;;;;;;;;4993666;28;19925;-81
2021/09/12 01:22:17;;;;;;;;;;;;;;;;;;4997582;28;19925;-81
2021/09/12 01:24:44;;;;;;;;;;;;;;;;;;4998041;28;19933;-81
2021/09/12 01:27:11;;;;;;;;;;;;;;;;;;4997494;28;19925;-81
2021/09/12 01:29:38;;;;;;;;;;;;;;;;;;4994399;28;19941;-82
2021/09/12 01:32:05;;;;;;;;;;;;;;;;;;4997846;28;19956;-82
2021/09/12 01:34:32;;;;;;;;;;;;;;;;;;4996196;28;20016;-81
2021/09/12 01:36:59;;;;;;;;;;;;;;;;;;4996237;28;20292;-81
2021/09/12 01:39:26;;;;;;;;;;;;;;;;;;4994574;28;20279;-81
2021/09/12 01:41:53;;;;;;;;;;;;;;;;;;4996037;28;20288;-83
2021/09/12 01:44:24;;;;;;;;;;;;;;;;;;4998231;28;20399;-83
2021/09/12 01:46:51;;;;;;;;;;;;;;;;;;4996614;28;20538;-83
2021/09/12 01:49:18;;;;;;;;;;;;;;;;;;4994746;28;20358;-83
2021/09/12 01:51:45;;;;;;;;;;;;;;;;;;4995019;28;19933;-83
2021/09/12 01:54:12;;;;;;;;;;;;;;;;;;4998440;28;20360;-81
2021/09/12 01:56:39;;;;;;;;;;;;;;;;;;4993627;28;19961;-81
2021/09/12 01:59:06;;;;;;;;;;;;;;;;;;5000398;28;19948;-81
2021/09/12 02:01:33;;;;;;;;;;;;;;;;;;4995504;28;19926;-82
2021/09/12 02:04:00;;;;;;;;;;;;;;;;;;4996590;28;19944;-80
2021/09/12 02:06:27;;;;;;;;;;;;;;;;;;4997657;28;20031;-80
2021/09/12 02:08:54;;;;;;;;;;;;;;;;;;4996273;28;19930;-83
2021/09/12 02:11:23;;;;;;;;;;;;;;;;;;4995955;28;19992;-82
2021/09/12 02:13:50;;;;;;;;;;;;;;;;;;5000825;28;19968;-81
2021/09/12 02:16:17;;;;;;;;;;;;;;;;;;4997577;28;19988;-83
2021/09/12 02:18:45;;;;;;;;;;;;;;;;;;4996385;28;20293;-81
2021/09/12 02:24:06;;;;;;;;;;;;;;;;;;4998682;28;19965;-81
2021/09/12 02:26:35;;;;;;;;;;;;;;;;;;4995082;28;19925;-80
2021/09/12 02:29:02;;;;;;;;;;;;;;;;;;4994094;28;19984;-83
2021/09/12 02:31:29;;;;;;;;;;;;;;;;;;4996323;28;20008;-83
2021/09/12 02:34:04;;;;;;;;;;;;;;;;;;4994954;28;19925;-83
2021/09/12 02:36:33;;;;;;;;;;;;;;;;;;5004387;28;19930;-83
2021/09/12 02:39:00;;;;;;;;;;;;;;;;;;4996271;28;20381;-81
2021/09/12 02:41:27;;;;;;;;;;;;;;;;;;4999569;28;19925;-82
2021/09/12 02:43:54;;;;;;;;;;;;;;;;;;4998370;28;20020;-83
2021/09/12 02:46:21;;;;;;;;;;;;;;;;;;4999480;28;19926;-81
2021/09/12 02:48:48;;;;;;;;;;;;;;;;;;4994134;28;20329;-82
2021/09/12 02:51:15;;;;;;;;;;;;;;;;;;4999767;28;20377;-82
2021/09/12 02:53:42;;;;;;;;;;;;;;;;;;5000124;28;19940;-82
2021/09/12 02:56:09;;;;;;;;;;;;;;;;;;4995614;28;21409;-82
2021/09/12 02:58:36;;;;;;;;;;;;;;;;;;4994407;28;20784;-82
2021/09/12 03:01:03;;;;;;;;;;;;;;;;;;4997838;28;19934;-81
2021/09/12 03:03:30;;;;;;;;;;;;;;;;;;4998855;28;20016;-82
2021/09/12 03:05:57;;;;;;;;;;;;;;;;;;4997060;28;20016;-83
2021/09/12 03:08:24;;;;;;;;;;;;;;;;;;5002345;28;19933;-82
2021/09/12 03:10:51;;;;;;;;;;;;;;;;;;4996585;28;19932;-82
2021/09/12 03:13:18;;;;;;;;;;;;;;;;;;5001692;28;19965;-83
2021/09/12 03:15:45;;;;;;;;;;;;;;;;;;4997765;28;20416;-83
2021/09/12 03:18:15;;;;;;;;;;;;;;;;;;5000287;28;19929;-83
2021/09/12 03:20:45;;;;;;;;;;;;;;;;;;4995703;28;20345;-82
2021/09/12 03:23:12;;;;;;;;;;;;;;;;;;4997484;28;19932;-83
2021/09/12 03:25:39;;;;;;;;;;;;;;;;;;4995693;28;19925;-82
2021/09/12 03:28:06;;;;;;;;;;;;;;;;;;4997034;28;19965;-81
2021/09/12 03:30:33;;;;;;;;;;;;;;;;;;4997611;28;19929;-83
2021/09/12 03:33:00;;;;;;;;;;;;;;;;;;4999117;28;20041;-83
2021/09/12 03:35:27;;;;;;;;;;;;;;;;;;5000905;28;19932;-84
2021/09/12 03:37:54;;;;;;;;;;;;;;;;;;4992555;28;19926;-82
2021/09/12 03:40:21;;;;;;;;;;;;;;;;;;4999525;28;20574;-84
2021/09/12 03:42:48;;;;;;;;;;;;;;;;;;4999408;28;19929;-82
2021/09/12 03:45:16;;;;;;;;;;;;;;;;;;4995458;28;19926;-84
2021/09/12 03:47:43;;;;;;;;;;;;;;;;;;4994506;28;19930;-84
2021/09/12 03:50:10;;;;;;;;;;;;;;;;;;4996664;28;19941;-85
2021/09/12 03:52:38;;;;;;;;;;;;;;;;;;4998340;28;19941;-84
2021/09/12 03:55:05;;;;;;;;;;;;;;;;;;5003007;28;20004;-84
2021/09/12 03:57:32;;;;;;;;;;;;;;;;;;4999819;28;19972;-86
2021/09/12 04:00:01;;;;;;;;;;;;;;;;;;4995798;28;20378;-85
2021/09/12 04:02:29;;;;;;;;;;;;;;;;;;4999918;28;20016;-83
2021/09/12 04:04:58;;;;;;;;;;;;;;;;;;4998018;28;19929;-84
2021/09/12 04:07:25;;;;;;;;;;;;;;;;;;4999214;28;20024;-86
2021/09/12 04:09:52;;;;;;;;;;;;;;;;;;4999936;28;19926;-85
2021/09/12 04:12:22;;;;;;;;;;;;;;;;;;4997631;28;19936;-85
2021/09/12 04:14:49;;;;;;;;;;;;;;;;;;4996136;28;20352;-85
2021/09/12 04:17:20;;;;;;;;;;;;;;;;;;5003051;28;20426;-85
2021/09/12 04:19:47;;;;;;;;;;;;;;;;;;5000725;28;19933;-85
2021/09/12 04:22:14;;;;;;;;;;;;;;;;;;4996937;28;19953;-83
2021/09/12 04:24:41;;;;;;;;;;;;;;;;;;4999218;28;19929;-84
2021/09/12 04:27:09;;;;;;;;;;;;;;;;;;5000819;28;19931;-84
2021/09/12 04:29:35;;;;;;;;;;;;;;;;;;5000708;28;19944;-83
2021/09/12 04:32:02;;;;;;;;;;;;;;;;;;5000485;28;19925;-83
2021/09/12 04:34:29;;;;;;;;;;;;;;;;;;4997438;28;19936;-84
2021/09/12 04:36:56;;;;;;;;;;;;;;;;;;5001451;28;19932;-84
2021/09/12 04:39:23;;;;;;;;;;;;;;;;;;5001987;28;19956;-83
2021/09/12 04:41:50;;;;;;;;;;;;;;;;;;4994732;28;20068;-83
2021/09/12 04:44:18;;;;;;;;;;;;;;;;;;4994743;28;19925;-83
2021/09/12 04:46:45;;;;;;;;;;;;;;;;;;4996769;28;20029;-84
2021/09/12 04:49:15;;;;;;;;;;;;;;;;;;4996659;28;20042;-84
2021/09/12 04:51:42;;;;;;;;;;;;;;;;;;5006207;28;19925;-85
2021/09/12 04:54:09;;;;;;;;;;;;;;;;;;4992750;28;19944;-85
2021/09/12 04:56:36;;;;;;;;;;;;;;;;;;4997560;28;19929;-86
2021/09/12 04:59:04;;;;;;;;;;;;;;;;;;4998470;28;20475;-85
2021/09/12 05:01:34;;;;;;;;;;;;;;;;;;4994680;28;20021;-85
2021/09/12 05:04:01;;;;;;;;;;;;;;;;;;4997278;28;19926;-84
2021/09/12 05:06:35;;;;;;;;;;;;;;;;;;4995729;28;20717;-86
2021/09/12 05:11:45;;;;;;;;;;;;;;;;;;4986762;28;20317;-84
2021/09/12 05:14:12;;;;;;;;;;;;;;;;;;4993857;28;20289;-82
2021/09/12 05:16:39;;;;;;;;;;;;;;;;;;5009230;28;19948;-84
2021/09/12 05:19:08;;;;;;;;;;;;;;;;;;5005966;28;21439;-83
2021/09/12 05:21:35;;;;;;;;;;;;;;;;;;5009594;28;19933;-84
2021/09/12 05:24:02;;;;;;;;;;;;;;;;;;4994650;28;20284;-84
2021/09/12 05:26:29;;;;;;;;;;;;;;;;;;4997647;28;19988;-85
2021/09/12 05:28:58;;;;;;;;;;;;;;;;;;5000829;28;19930;-86
2021/09/12 05:31:25;;;;;;;;;;;;;;;;;;5001227;28;19933;-84
2021/09/12 05:33:54;;;;;;;;;;;;;;;;;;5001093;28;19938;-85
2021/09/12 05:36:21;;;;;;;;;;;;;;;;;;5000231;28;19925;-84
2021/09/12 05:38:50;;;;;;;;;;;;;;;;;;4994051;28;20391;-85
2021/09/12 05:41:17;;;;;;;;;;;;;;;;;;5000163;28;19933;-85
2021/09/12 05:43:58;;;;;;;;;;;;;;;;;;5000902;28;19925;-85
2021/09/12 05:46:29;;;;;;;;;;;;;;;;;;4994348;28;20032;-83
2021/09/12 05:48:57;;;;;;;;;;;;;;;;;;4994928;28;20395;-85
2021/09/12 05:51:24;;;;;;;;;;;;;;;;;;4992797;28;19936;-83
2021/09/12 05:53:51;;;;;;;;;;;;;;;;;;5004463;28;20024;-85
2021/09/12 05:56:19;;;;;;;;;;;;;;;;;;5003646;28;19932;-84
2021/09/12 05:58:46;;;;;;;;;;;;;;;;;;4996638;28;19934;-84
2021/09/12 06:01:14;;;;;;;;;;;;;;;;;;4995974;28;19936;-85
2021/09/12 06:03:41;;;;;;;;;;;;;;;;;;4994898;28;19925;-85
2021/09/12 06:06:07;;;;;;;;;;;;;;;;;;4996329;28;20418;-82
2021/09/12 06:08:35;;;;;;;;;;;;;;;;;;4996673;28;20574;-84
2021/09/12 06:11:02;;;;;;;;;;;;;;;;;;5001213;28;19930;-83
2021/09/12 06:13:28;;;;;;;;;;;;;;;;;;5003884;28;19925;-83
2021/09/12 06:15:55;;;;;;;;;;;;;;;;;;5005163;28;19961;-84
2021/09/12 06:18:25;;;;;;;;;;;;;;;;;;4998732;28;19939;-84
2021/09/12 06:21:03;;;;;;;;;;;;;;;;;;4998953;28;20363;-85
2021/09/12 06:23:31;;;;;;;;;;;;;;;;;;5000401;28;20405;-84
2021/09/12 06:25:58;;;;;;;;;;;;;;;;;;5006465;28;19985;-83
2021/09/12 06:28:25;;;;;;;;;;;;;;;;;;5007403;28;19934;-82
2021/09/12 06:30:54;;;;;;;;;;;;;;;;;;5004031;28;19929;-82
2021/09/12 06:33:23;;;;;;;;;;;;;;;;;;4998920;28;20400;-84
2021/09/12 06:35:50;;;;;;;;;;;;;;;;;;4997680;28;19945;-82
2021/09/12 06:38:17;;;;;;;;;;;;;;;;;;4995126;28;19933;-84
2021/09/12 06:40:44;;;;;;;;;;;;;;;;;;4999018;28;19980;-83
2021/09/12 06:43:11;;;;;;;;;;;;;;;;;;4996560;28;19925;-82
2021/09/12 06:45:38;;;;;;;;;;;;;;;;;;4999233;28;19936;-84
2021/09/12 06:48:05;;;;;;;;;;;;;;;;;;4999610;28;19944;-83
2021/09/12 06:50:32;;;;;;;;;;;;;;;;;;5002543;28;19932;-84
2021/09/12 06:52:59;;;;;;;;;;;;;;;;;;4996303;28;19940;-84
2021/09/12 06:55:26;;;;;;;;;;;;;;;;;;4998275;28;19933;-85
2021/09/12 06:57:53;;;;;;;;;;;;;;;;;;4996839;28;20392;-84
2021/09/12 07:00:20;;;;;;;;;;;;;;;;;;4998038;28;19933;-85
2021/09/12 07:02:47;;;;;;;;;;;;;;;;;;5000036;28;20008;-84
2021/09/12 07:05:14;;;;;;;;;;;;;;;;;;5009107;28;19926;-86
2021/09/12 07:07:41;;;;;;;;;;;;;;;;;;5005570;28;19925;-86
2021/09/12 07:10:08;;;;;;;;;;;;;;;;;;5009315;28;19975;-87
2021/09/12 07:12:35;;;;;;;;;;;;;;;;;;5002291;28;20016;-87
2021/09/12 07:15:02;;;;;;;;;;;;;;;;;;5001949;28;19948;-84
2021/09/12 07:17:29;;;;;;;;;;;;;;;;;;4997308;28;19948;-85
2021/09/12 07:19:56;;;;;;;;;;;;;;;;;;5006612;28;19948;-87
2021/09/12 07:22:23;;;;;;;;;;;;;;;;;;4998815;28;20678;-85
2021/09/12 07:24:49;;;;;;;;;;;;;;;;;;4998714;28;19973;-85
2021/09/12 07:27:16;;;;;;;;;;;;;;;;;;4996401;28;19926;-86
2021/09/12 07:29:43;;;;;;;;;;;;;;;;;;5004191;28;19925;-82
2021/09/12 07:32:10;;;;;;;;;;;;;;;;;;4996943;28;19926;-82
2021/09/12 07:34:37;;;;;;;;;;;;;;;;;;4998903;28;20012;-81
2021/09/12 07:37:04;;;;;;;;;;;;;;;;;;4995506;28;19926;-81
2021/09/12 07:39:31;;;;;;;;;;;;;;;;;;5000046;28;19926;-81
2021/09/12 07:41:58;;;;;;;;;;;;;;;;;;4995159;28;19926;-81
2021/09/12 07:44:25;;;;;;;;;;;;;;;;;;4998382;28;19931;-83
2021/09/12 07:46:52;;;;;;;;;;;;;;;;;;5005058;28;19932;-83
2021/09/12 07:49:19;;;;;;;;;;;;;;;;;;5003859;28;19929;-81
2021/09/12 07:51:47;;;;;;;;;;;;;;;;;;5002419;28;20537;-81
2021/09/12 07:54:14;;;;;;;;;;;;;;;;;;5223245;22;20028;-81
2021/09/12 07:56:41;;;;;;;;;;;;;;;;;;5007796;28;20033;-83
2021/09/12 07:59:08;;;;;;;;;;;;;;;;;;5007448;28;19930;-83
2021/09/12 08:01:35;;;;;;;;;;;;;;;;;;5011378;28;20012;-84
2021/09/12 08:04:02;;;;;;;;;;;;;;;;;;5004861;28;19939;-83
2021/09/12 08:06:29;;;;;;;;;;;;;;;;;;5001592;28;20027;-83
2021/09/12 08:08:56;;;;;;;;;;;;;;;;;;4999093;28;19940;-83
2021/09/12 08:11:23;;;;;;;;;;;;;;;;;;4996552;28;19926;-79
2021/09/12 08:13:50;;;;;;;;;;;;;;;;;;5006682;28;20020;-77
2021/09/12 08:16:17;;;;;;;;;;;;;;;;;;4993471;28;19926;-75
2021/09/12 08:18:44;;;;;;;;;;;;;;;;;;5000764;28;19926;-77
2021/09/12 08:21:11;;;;;;;;;;;;;;;;;;5002056;28;19925;-80
2021/09/12 08:23:38;;;;;;;;;;;;;;;;;;5000308;28;19926;-82
2021/09/12 08:26:05;;;;;;;;;;;;;;;;;;5007452;28;19955;-79
2021/09/12 08:28:32;;;;;;;;;;;;;;;;;;5004719;28;19964;-76
2021/09/12 08:31:00;;;;;;;;;;;;;;;;;;4994328;28;19940;-79
2021/09/12 08:33:27;;;;;;;;;;;;;;;;;;4994261;28;20354;-78
2021/09/12 08:35:54;;;;;;;;;;;;;;;;;;4997336;28;20436;-77
2021/09/12 08:38:21;;;;;;;;;;;;;;;;;;5001971;28;19969;-78
2021/09/12 08:40:48;;;;;;;;;;;;;;;;;;4990681;28;19952;-80
2021/09/12 08:43:14;;;;;;;;;;;;;;;;;;4995174;28;20696;-80
2021/09/12 08:45:41;;;;;;;;;;;;;;;;;;4999341;28;20504;-78
2021/09/12 08:48:08;;;;;;;;;;;;;;;;;;4995993;28;20400;-78
2021/09/12 08:50:35;;;;;;;;;;;;;;;;;;4998450;28;19929;-75
2021/09/12 08:53:02;;;;;;;;;;;;;;;;;;4988555;28;19932;-76
2021/09/12 08:55:29;;;;;;;;;;;;;;;;;;4999148;28;19980;-78
2021/09/12 08:57:58;;;;;;;;;;;;;;;;;;5003651;28;19936;-77
2021/09/12 09:00:25;;;;;;;;;;;;;;;;;;4994697;28;19952;-79
2021/09/12 09:02:52;;;;;;;;;;;;;;;;;;5001986;28;19961;-76
2021/09/12 09:05:19;;;;;;;;;;;;;;;;;;4995992;28;19983;-76
2021/09/12 09:07:46;;;;;;;;;;;;;;;;;;4989737;28;19936;-74
2021/09/12 09:10:13;;;;;;;;;;;;;;;;;;4999399;28;19957;-75
2021/09/12 09:12:41;;;;;;;;;;;;;;;;;;4995963;28;19925;-76
2021/09/12 09:15:08;;;;;;;;;;;;;;;;;;4993539;28;20107;-78
2021/09/12 09:17:35;;;;;;;;;;;;;;;;;;5000547;28;20012;-77
2021/09/12 09:20:02;;;;;;;;;;;;;;;;;;5000571;28;19932;-76
2021/09/12 09:22:29;;;;;;;;;;;;;;;;;;4998408;28;19936;-76
2021/09/12 09:24:56;;;;;;;;;;;;;;;;;;5000306;28;19969;-77
2021/09/12 09:27:23;;;;;;;;;;;;;;;;;;4997653;28;19932;-78
2021/09/12 09:29:50;;;;;;;;;;;;;;;;;;4993100;28;19968;-80
2021/09/12 09:32:17;;;;;;;;;;;;;;;;;;5001262;28;19932;-79
2021/09/12 09:34:44;;;;;;;;;;;;;;;;;;4994100;28;19944;-79
2021/09/12 09:37:11;;;;;;;;;;;;;;;;;;5003529;28;20012;-79
2021/09/12 09:39:38;;;;;;;;;;;;;;;;;;5004471;28;19931;-81
2021/09/12 09:42:05;;;;;;;;;;;;;;;;;;4998773;28;19967;-79
2021/09/12 09:44:32;;;;;;;;;;;;;;;;;;4996253;28;20329;-80
2021/09/12 09:46:59;;;;;;;;;;;;;;;;;;4995001;28;19929;-80
2021/09/12 09:49:26;;;;;;;;;;;;;;;;;;5001734;28;20407;-80
2021/09/12 09:51:53;;;;;;;;;;;;;;;;;;4986976;28;19926;-81
2021/09/12 09:54:20;;;;;;;;;;;;;;;;;;4998322;28;20017;-79
2021/09/12 09:56:47;;;;;;;;;;;;;;;;;;4995252;28;19976;-80
2021/09/12 09:59:14;;;;;;;;;;;;;;;;;;4993260;28;19926;-81
2021/09/12 10:01:41;;;;;;;;;;;;;;;;;;4999491;28;20018;-83
2021/09/12 10:04:08;;;;;;;;;;;;;;;;;;4996693;28;19937;-82
2021/09/12 10:06:35;;;;;;;;;;;;;;;;;;4998595;28;19932;-83
2021/09/12 10:09:02;;;;;;;;;;;;;;;;;;4997848;28;19997;-82
2021/09/12 10:11:29;;;;;;;;;;;;;;;;;;4998362;28;20313;-80
2021/09/12 10:13:56;;;;;;;;;;;;;;;;;;4998994;28;19941;-79
2021/09/12 10:16:23;;;;;;;;;;;;;;;;;;4994187;28;20041;-81
2021/09/12 10:18:50;;;;;;;;;;;;;;;;;;4996547;28;19931;-84
2021/09/12 10:21:17;;;;;;;;;;;;;;;;;;5000948;28;19932;-79
2021/09/12 10:23:46;;;;;;;;;;;;;;;;;;4996020;28;20017;-79
2021/09/12 10:26:13;;;;;;;;;;;;;;;;;;5007750;28;20007;-79
2021/09/12 10:28:41;;;;;;;;;;;;;;;;;;5008727;28;20015;-79
2021/09/12 10:31:07;;;;;;;;;;;;;;;;;;5007786;28;19941;-79
2021/09/12 10:33:34;;;;;;;;;;;;;;;;;;5011175;28;19927;-81
2021/09/12 10:36:01;;;;;;;;;;;;;;;;;;5008281;28;19925;-80
2021/09/12 10:38:29;;;;;;;;;;;;;;;;;;5011379;28;20364;-81
2021/09/12 10:40:56;;;;;;;;;;;;;;;;;;5013028;28;19926;-79
2021/09/12 10:43:23;;;;;;;;;;;;;;;;;;4999184;28;19953;-80
2021/09/12 10:45:50;;;;;;;;;;;;;;;;;;5004072;28;20012;-82
2021/09/12 10:48:17;;;;;;;;;;;;;;;;;;4994236;28;20607;-82
2021/09/12 10:50:44;;;;;;;;;;;;;;;;;;4996349;28;19925;-79
2021/09/12 10:53:11;;;;;;;;;;;;;;;;;;4996601;28;19926;-79
2021/09/12 10:55:38;;;;;;;;;;;;;;;;;;4997003;28;20403;-77
2021/09/12 10:58:05;;;;;;;;;;;;;;;;;;4995720;28;19964;-76
2021/09/12 11:00:32;;;;;;;;;;;;;;;;;;5007396;28;20008;-79
2021/09/12 11:02:59;;;;;;;;;;;;;;;;;;5002670;28;19935;-78
2021/09/12 11:05:26;;;;;;;;;;;;;;;;;;5003305;28;19936;-78
2021/09/12 11:07:53;;;;;;;;;;;;;;;;;;4997973;28;19933;-79
2021/09/12 11:10:20;;;;;;;;;;;;;;;;;;4997498;28;20352;-79
2021/09/12 11:12:47;;;;;;;;;;;;;;;;;;4996768;28;20416;-78
2021/09/12 11:15:14;;;;;;;;;;;;;;;;;;4997713;28;20389;-78
2021/09/12 11:17:41;;;;;;;;;;;;;;;;;;4995365;28;20388;-80
2021/09/12 11:20:07;;;;;;;;;;;;;;;;;;5014714;28;19925;-78
2021/09/12 11:22:35;;;;;;;;;;;;;;;;;;5006795;28;20288;-80
2021/09/12 11:25:02;;;;;;;;;;;;;;;;;;5007596;28;19993;-79
2021/09/12 11:27:31;;;;;;;;;;;;;;;;;;4999527;28;19926;-79
2021/09/12 11:29:58;;;;;;;;;;;;;;;;;;5002841;28;20007;-79
2021/09/12 11:32:25;;;;;;;;;;;;;;;;;;5000781;28;19934;-78
2021/09/12 11:34:52;;;;;;;;;;;;;;;;;;4996761;28;19926;-78
2021/09/12 11:37:22;;;;;;;;;;;;;;;;;;4997488;28;19932;-79
2021/09/12 11:39:55;;;;;;;;;;;;;;;;;;5001161;28;19999;-78
2021/09/12 11:42:22;;;;;;;;;;;;;;;;;;5001419;28;19925;-77
2021/09/12 11:44:49;;;;;;;;;;;;;;;;;;4996980;28;19926;-78
2021/09/12 11:47:16;;;;;;;;;;;;;;;;;;5002929;28;19932;-78
2021/09/12 11:49:43;;;;;;;;;;;;;;;;;;5014103;28;19941;-80
2021/09/12 11:52:10;;;;;;;;;;;;;;;;;;5009332;28;20488;-80
2021/09/12 11:54:36;;;;;;;;;;;;;;;;;;5004972;28;19926;-80
2021/09/12 11:57:03;;;;;;;;;;;;;;;;;;5010487;28;20027;-80
2021/09/12 11:59:30;;;;;;;;;;;;;;;;;;5011065;28;19935;-80
2021/09/12 12:01:57;;;;;;;;;;;;;;;;;;5002109;28;19940;-80
2021/09/12 12:04:24;;;;;;;;;;;;;;;;;;5008029;28;20482;-80
2021/09/12 12:06:54;;;;;;;;;;;;;;;;;;5011310;28;20359;-80
2021/09/12 12:09:26;;;;;;;;;;;;;;;;;;5004793;28;20020;-79
2021/09/12 12:11:54;;;;;;;;;;;;;;;;;;5013722;28;20336;-80
2021/09/12 12:14:20;;;;;;;;;;;;;;;;;;5000354;28;20351;-80
2021/09/12 12:16:47;;;;;;;;;;;;;;;;;;5007955;28;20307;-80
2021/09/12 12:19:15;;;;;;;;;;;;;;;;;;5006346;28;19926;-80
2021/09/12 12:21:42;;;;;;;;;;;;;;;;;;5011372;28;20404;-80
2021/09/12 12:24:09;;;;;;;;;;;;;;;;;;5003872;28;19926;-81
2021/09/12 12:26:36;;;;;;;;;;;;;;;;;;4998330;28;19925;-81
2021/09/12 12:29:03;;;;;;;;;;;;;;;;;;5001830;28;19925;-80
2021/09/12 12:31:30;;;;;;;;;;;;;;;;;;5014342;28;20107;-80
2021/09/12 12:33:57;;;;;;;;;;;;;;;;;;4999359;28;19948;-80
2021/09/12 12:36:24;;;;;;;;;;;;;;;;;;5008769;28;19948;-80
2021/09/12 12:38:51;;;;;;;;;;;;;;;;;;5009409;28;20032;-79
2021/09/12 12:41:18;;;;;;;;;;;;;;;;;;5007315;28;19925;-80
2021/09/12 12:43:45;;;;;;;;;;;;;;;;;;4994044;28;20021;-81
2021/09/12 12:46:12;;;;;;;;;;;;;;;;;;5009757;28;19925;-81
2021/09/12 12:48:41;;;;;;;;;;;;;;;;;;5005259;28;20028;-80
2021/09/12 12:51:08;;;;;;;;;;;;;;;;;;5006677;28;19936;-80
2021/09/12 12:53:37;;;;;;;;;;;;;;;;;;5000545;28;20015;-80
2021/09/12 12:56:04;;;;;;;;;;;;;;;;;;5007802;28;20321;-80
2021/09/12 12:58:32;;;;;;;;;;;;;;;;;;5003653;28;19976;-80
2021/09/12 13:00:59;;;;;;;;;;;;;;;;;;5011082;28;20279;-79
2021/09/12 13:03:26;;;;;;;;;;;;;;;;;;5002667;28;20372;-80
2021/09/12 13:05:53;;;;;;;;;;;;;;;;;;5010563;28;20412;-80
2021/09/12 13:08:20;;;;;;;;;;;;;;;;;;5007578;28;19932;-80
2021/09/12 13:10:47;;;;;;;;;;;;;;;;;;5011659;28;20020;-78
2021/09/12 13:13:14;;;;;;;;;;;;;;;;;;5006110;28;19925;-78
2021/09/12 13:15:41;;;;;;;;;;;;;;;;;;5005644;28;19940;-82
2021/09/12 13:18:08;;;;;;;;;;;;;;;;;;5006358;28;20008;-82
2021/09/12 13:20:35;;;;;;;;;;;;;;;;;;5000683;28;19934;-81
2021/09/12 13:23:02;;;;;;;;;;;;;;;;;;5006492;28;19939;-76
2021/09/12 13:25:29;;;;;;;;;;;;;;;;;;5009725;28;19931;-77
2021/09/12 13:27:56;;;;;;;;;;;;;;;;;;5005685;28;19932;-79
2021/09/12 13:30:23;;;;;;;;;;;;;;;;;;5000734;28;19929;-79
2021/09/12 13:32:50;;;;;;;;;;;;;;;;;;5005764;28;19944;-77
2021/09/12 13:35:17;;;;;;;;;;;;;;;;;;5010361;28;19983;-79
2021/09/12 13:37:44;;;;;;;;;;;;;;;;;;4998338;28;20357;-79
2021/09/12 13:40:11;;;;;;;;;;;;;;;;;;4994637;28;20447;-81
2021/09/12 13:42:38;;;;;;;;;;;;;;;;;;4998169;28;20411;-83
2021/09/12 13:45:05;;;;;;;;;;;;;;;;;;5004466;28;19933;-83
2021/09/12 13:47:32;;;;;;;;;;;;;;;;;;5001691;28;19941;-83
2021/09/12 13:49:59;;;;;;;;;;;;;;;;;;4998700;28;19936;-81
2021/09/12 13:52:26;;;;;;;;;;;;;;;;;;4998660;28;20020;-81
2021/09/12 13:54:53;;;;;;;;;;;;;;;;;;5002863;28;19952;-82
2021/09/12 13:57:20;;;;;;;;;;;;;;;;;;5003979;28;19934;-82
2021/09/12 13:59:47;;;;;;;;;;;;;;;;;;4994032;28;20646;-82
2021/09/12 14:02:14;;;;;;;;;;;;;;;;;;4988307;28;19930;-82
2021/09/12 14:04:42;;;;;;;;;;;;;;;;;;4995677;28;19932;-82
2021/09/12 14:07:09;;;;;;;;;;;;;;;;;;4999589;28;19929;-82
2021/09/12 14:09:36;;;;;;;;;;;;;;;;;;4998171;28;19948;-76
2021/09/12 14:12:03;;;;;;;;;;;;;;;;;;4994960;28;20313;-79
2021/09/12 14:14:30;;;;;;;;;;;;;;;;;;5010110;28;20364;-78
2021/09/12 14:16:57;;;;;;;;;;;;;;;;;;5006933;28;20343;-76
2021/09/12 14:19:24;;;;;;;;;;;;;;;;;;4998296;28;19925;-78
2021/09/12 14:21:51;;;;;;;;;;;;;;;;;;5002978;28;20607;-78
2021/09/12 14:24:17;;;;;;;;;;;;;;;;;;5002505;28;20340;-78
2021/09/12 14:26:44;;;;;;;;;;;;;;;;;;4993261;28;20302;-79
2021/09/12 14:29:11;;;;;;;;;;;;;;;;;;4998175;28;20585;-78
2021/09/12 14:31:38;;;;;;;;;;;;;;;;;;5001635;28;19983;-79
2021/09/12 14:34:05;;;;;;;;;;;;;;;;;;5002298;28;19933;-79
2021/09/12 14:36:32;;;;;;;;;;;;;;;;;;5003745;28;20020;-79
2021/09/12 14:38:59;;;;;;;;;;;;;;;;;;5009276;28;19932;-78
2021/09/12 14:41:26;;;;;;;;;;;;;;;;;;4999494;28;20452;-76
2021/09/12 14:43:53;;;;;;;;;;;;;;;;;;5002325;28;21510;-78
2021/09/12 14:46:20;;;;;;;;;;;;;;;;;;5008379;28;19929;-78
2021/09/12 14:48:47;;;;;;;;;;;;;;;;;;5004670;28;19932;-78
2021/09/12 14:51:15;;;;;;;;;;;;;;;;;;5000111;28;19925;-77
2021/09/12 14:53:41;;;;;;;;;;;;;;;;;;5004103;28;19984;-78
2021/09/12 14:56:09;;;;;;;;;;;;;;;;;;4998627;28;19943;-79
2021/09/12 14:58:36;;;;;;;;;;;;;;;;;;5005686;28;20505;-78
2021/09/12 15:01:03;;;;;;;;;;;;;;;;;;5002874;28;20423;-78
2021/09/12 15:03:30;;;;;;;;;;;;;;;;;;5001751;28;20017;-79
2021/09/12 15:05:57;;;;;;;;;;;;;;;;;;4998867;28;19932;-80
2021/09/12 15:08:24;;;;;;;;;;;;;;;;;;4999325;28;19925;-80
2021/09/12 15:10:51;;;;;;;;;;;;;;;;;;4999744;28;20344;-80
2021/09/12 15:13:18;;;;;;;;;;;;;;;;;;4997872;28;19926;-79
2021/09/12 15:15:45;;;;;;;;;;;;;;;;;;5001821;28;20326;-79
2021/09/12 15:18:12;;;;;;;;;;;;;;;;;;5004732;28;19948;-80
2021/09/12 15:20:40;;;;;;;;;;;;;;;;;;5003251;28;19948;-80
2021/09/12 15:23:07;;;;;;;;;;;;;;;;;;5003080;28;19933;-78
2021/09/12 15:25:34;;;;;;;;;;;;;;;;;;4995139;28;19949;-80
2021/09/12 15:28:02;;;;;;;;;;;;;;;;;;5006876;28;20460;-80
2021/09/12 15:30:29;;;;;;;;;;;;;;;;;;5002863;28;20416;-79
2021/09/12 15:32:56;;;;;;;;;;;;;;;;;;5007281;28;19981;-79
2021/09/12 15:35:22;;;;;;;;;;;;;;;;;;5001994;28;20671;-83
2021/09/12 15:37:49;;;;;;;;;;;;;;;;;;5002383;28;19925;-78
2021/09/12 15:40:16;;;;;;;;;;;;;;;;;;5003315;28;19932;-80
2021/09/12 15:42:43;;;;;;;;;;;;;;;;;;5005476;28;19949;-78
2021/09/12 15:45:10;;;;;;;;;;;;;;;;;;5004477;28;20641;-79
2021/09/12 15:47:37;;;;;;;;;;;;;;;;;;4997662;28;20395;-79
2021/09/12 15:50:04;;;;;;;;;;;;;;;;;;4997349;28;19925;-79
2021/09/12 15:52:32;;;;;;;;;;;;;;;;;;5000353;28;20012;-79
2021/09/12 15:54:59;;;;;;;;;;;;;;;;;;4999217;28;19932;-79
2021/09/12 15:57:26;;;;;;;;;;;;;;;;;;4999875;28;19929;-80
2021/09/12 15:59:53;;;;;;;;;;;;;;;;;;5003232;28;20008;-79
2021/09/12 16:02:20;;;;;;;;;;;;;;;;;;5003210;28;20004;-80
2021/09/12 16:04:47;;;;;;;;;;;;;;;;;;5004449;28;19932;-80
2021/09/12 16:07:14;;;;;;;;;;;;;;;;;;5005227;28;20015;-80
2021/09/12 16:09:40;;;;;;;;;;;;;;;;;;5004677;28;20265;-78
2021/09/12 16:12:07;;;;;;;;;;;;;;;;;;5014436;28;19925;-79
2021/09/12 16:14:34;;;;;;;;;;;;;;;;;;5007743;28;20021;-80
2021/09/12 16:17:01;;;;;;;;;;;;;;;;;;4997774;28;19936;-78
2021/09/12 16:19:28;;;;;;;;;;;;;;;;;;5003208;28;19926;-79
2021/09/12 16:21:55;;;;;;;;;;;;;;;;;;5001506;28;19929;-80
2021/09/12 16:24:22;;;;;;;;;;;;;;;;;;4996822;28;19933;-81
2021/09/12 16:26:49;;;;;;;;;;;;;;;;;;5008243;28;20062;-80
2021/09/12 16:29:16;;;;;;;;;;;;;;;;;;4999527;28;19926;-80
2021/09/12 16:31:43;;;;;;;;;;;;;;;;;;5003352;28;19932;-80
2021/09/12 16:34:10;;;;;;;;;;;;;;;;;;5001242;28;19926;-79
2021/09/12 16:36:37;;;;;;;;;;;;;;;;;;4999405;28;19948;-80
2021/09/12 16:39:04;;;;;;;;;;;;;;;;;;5004140;28;20523;-80
2021/09/12 16:41:31;;;;;;;;;;;;;;;;;;4999006;28;20314;-79
2021/09/12 16:44:00;;;;;;;;;;;;;;;;;;5004951;28;19926;-78
2021/09/12 16:46:50;;;;;;;;;;;;;;;;;;5007832;28;19972;-79
2021/09/12 16:49:17;;;;;;;;;;;;;;;;;;5009781;28;20407;-79
2021/09/12 16:51:44;;;;;;;;;;;;;;;;;;4999534;28;19980;-79